createdAt,value
2023-04-06T00:02:01.735Z,101369.72
2023-04-06T00:04:29.356Z,101376.25
2023-04-06T00:06:57.394Z,101373.84
2023-04-06T00:09:24.997Z,101369.22
2023-04-06T00:11:52.575Z,101368.53
2023-04-06T00:14:20.378Z,101366.00
2023-04-06T00:16:48.120Z,101369.66
2023-04-06T00:19:17.185Z,101370.53
2023-04-06T00:21:44.784Z,101361.63
2023-04-06T00:24:12.398Z,101360.22
2023-04-06T00:26:40.055Z,101365.59
2023-04-06T00:29:07.936Z,101362.47
2023-04-06T00:31:35.873Z,101362.47
2023-04-06T00:34:03.578Z,101362.22
2023-04-06T00:36:32.554Z,101359.94
2023-04-06T00:39:00.223Z,101354.84
2023-04-06T00:41:27.946Z,101359.66
2023-04-06T00:43:55.800Z,101357.72
2023-04-06T00:46:23.481Z,101358.41
2023-04-06T00:48:51.293Z,101350.94
2023-04-06T00:51:18.867Z,101352.66
2023-04-06T00:53:47.879Z,101352.66
2023-04-06T00:56:15.553Z,101350.53
2023-04-06T00:58:43.156Z,101338.53
2023-04-06T01:01:10.816Z,101337.41
2023-04-06T01:03:38.471Z,101327.53
2023-04-06T01:06:06.314Z,101335.72
2023-04-06T01:08:34.017Z,101329.38
2023-04-06T01:11:03.044Z,101331.31
2023-04-06T01:13:30.790Z,101325.84
2023-04-06T01:15:58.732Z,101327.38
2023-04-06T01:18:28.177Z,101319.50
2023-04-06T01:20:55.987Z,101328.81
2023-04-06T01:23:25.268Z,101324.97
2023-04-06T01:25:52.828Z,101324.28
2023-04-06T01:28:21.749Z,101324.56
2023-04-06T01:30:49.441Z,101320.22
2023-04-06T01:33:17.077Z,101318.50
2023-04-06T01:35:44.729Z,101321.19
2023-04-06T01:38:12.406Z,101316.94
2023-04-06T01:40:41.510Z,101319.63
2023-04-06T01:43:09.258Z,101317.94
2023-04-06T01:45:36.966Z,101318.22
2023-04-06T01:48:04.948Z,101326.25
2023-04-06T01:50:32.722Z,101315.38
2023-04-06T01:53:00.370Z,101321.59
2023-04-06T01:55:28.034Z,101320.47
2023-04-06T01:57:56.961Z,101314.81
2023-04-06T02:00:24.589Z,101313.97
2023-04-06T02:02:52.206Z,101317.22
2023-04-06T02:05:19.844Z,101315.09
2023-04-06T02:07:47.599Z,101318.50
2023-04-06T02:10:16.602Z,101308.19
2023-04-06T02:12:44.271Z,101304.66
2023-04-06T02:15:14.230Z,101302.81
2023-04-06T02:17:42.240Z,101306.50
2023-04-06T02:20:10.938Z,101307.75
2023-04-06T02:22:38.546Z,101306.59
2023-04-06T02:25:07.138Z,101302.66
2023-04-06T02:27:34.927Z,101299.69
2023-04-06T02:30:02.839Z,101301.53
2023-04-06T02:32:31.954Z,101301.38
2023-04-06T02:34:59.751Z,101300.25
2023-04-06T02:37:27.560Z,101300.41
2023-04-06T02:39:55.421Z,101297.53
2023-04-06T02:42:23.256Z,101295.59
2023-04-06T02:44:51.064Z,101300.94
2023-04-06T02:47:18.647Z,101296.75
2023-04-06T02:49:48.557Z,101288.00
2023-04-06T02:52:16.366Z,101290.41
2023-04-06T02:54:44.034Z,101291.66
2023-04-06T02:57:11.913Z,101286.72
2023-04-06T02:59:39.626Z,101289.69
2023-04-06T03:02:07.499Z,101280.81
2023-04-06T03:04:35.232Z,101284.88
2023-04-06T03:07:04.190Z,101284.00
2023-04-06T03:09:31.830Z,101289.66
2023-04-06T03:12:01.418Z,101281.75
2023-04-06T03:14:30.132Z,101281.31
2023-04-06T03:16:57.758Z,101286.81
2023-04-06T03:19:25.386Z,101269.94
2023-04-06T03:21:53.061Z,101279.22
2023-04-06T03:24:22.027Z,101279.47
2023-04-06T03:26:49.631Z,101279.75
2023-04-06T03:29:17.270Z,101281.75
2023-04-06T03:31:45.096Z,101281.19
2023-04-06T03:34:12.830Z,101278.78
2023-04-06T03:36:40.524Z,101280.78
2023-04-06T03:39:08.425Z,101286.72
2023-04-06T03:41:37.631Z,101285.31
2023-04-06T03:44:05.445Z,101280.69
2023-04-06T03:46:33.063Z,101283.50
2023-04-06T03:49:00.819Z,101287.16
2023-04-06T03:51:29.060Z,101280.25
2023-04-06T03:53:56.849Z,101284.88
2023-04-06T03:56:24.465Z,101285.41
2023-04-06T03:58:53.494Z,101286.81
2023-04-06T04:01:21.316Z,101286.81
2023-04-06T04:03:51.082Z,101283.47
2023-04-06T04:06:19.464Z,101285.56
2023-04-06T04:08:47.209Z,101281.75
2023-04-06T04:11:16.724Z,101282.97
2023-04-06T04:13:44.411Z,101285.47
2023-04-06T04:16:13.419Z,101290.69
2023-04-06T04:18:41.096Z,101285.22
2023-04-06T04:21:08.713Z,101290.38
2023-04-06T04:23:37.461Z,101296.41
2023-04-06T04:26:05.919Z,101287.03
2023-04-06T04:28:33.590Z,101288.16
2023-04-06T04:31:01.373Z,101288.22
2023-04-06T04:33:34.805Z,101287.63
2023-04-06T04:36:02.586Z,101282.56
2023-04-06T04:38:30.269Z,101283.69
2023-04-06T04:40:57.940Z,101281.41
2023-04-06T04:43:25.603Z,101288.97
2023-04-06T04:45:53.553Z,101283.38
2023-04-06T04:48:21.332Z,101283.38
2023-04-06T04:50:50.312Z,101284.66
2023-04-06T04:53:17.953Z,101291.25
2023-04-06T04:55:45.617Z,101291.03
2023-04-06T04:58:16.394Z,101287.53
2023-04-06T05:00:44.142Z,101285.53
2023-04-06T05:03:21.831Z,101289.34
2023-04-06T05:05:50.885Z,101294.19
2023-04-06T05:08:18.617Z,101290.72
2023-04-06T05:10:47.621Z,101287.06
2023-04-06T05:13:15.488Z,101293.41
2023-04-06T05:15:43.258Z,101286.81
2023-04-06T05:18:10.958Z,101290.88
2023-04-06T05:20:39.663Z,101293.38
2023-04-06T05:23:08.749Z,101290.78
2023-04-06T05:25:36.595Z,101287.81
2023-04-06T05:28:04.251Z,101282.59
2023-04-06T05:30:32.086Z,101288.22
2023-04-06T05:33:01.130Z,101294.41
2023-04-06T05:35:28.819Z,101286.94
2023-04-06T05:37:56.565Z,101284.47
2023-04-06T05:40:25.557Z,101283.38
2023-04-06T05:42:53.247Z,101289.13
2023-04-06T05:45:22.223Z,101290.69
2023-04-06T05:47:50.013Z,101291.69
2023-04-06T05:50:17.906Z,101286.66
2023-04-06T05:52:47.321Z,101279.06
2023-04-06T05:55:15.059Z,101285.31
2023-04-06T05:57:46.506Z,101278.25
2023-04-06T06:00:15.885Z,101285.69
2023-04-06T06:02:43.885Z,101278.28
2023-04-06T06:05:11.919Z,101274.84
2023-04-06T06:07:39.603Z,101283.16
2023-04-06T06:10:08.485Z,101275.81
2023-04-06T06:12:38.533Z,101285.00
2023-04-06T06:15:08.662Z,101279.38
2023-04-06T06:17:39.010Z,101277.66
2023-04-06T06:20:08.457Z,101278.41
2023-04-06T06:22:36.116Z,101271.06
2023-04-06T06:25:04.150Z,101279.53
2023-04-06T06:27:31.838Z,101278.41
2023-04-06T06:29:59.510Z,101269.81
2023-04-06T06:32:28.516Z,101280.69
2023-04-06T06:34:56.132Z,101278.16
2023-04-06T06:37:23.788Z,101277.59
2023-04-06T06:39:51.678Z,101281.13
2023-04-06T06:42:20.402Z,101282.69
2023-04-06T06:44:48.330Z,101277.88
2023-04-06T06:47:16.022Z,101278.28
2023-04-06T06:49:45.116Z,101277.44
2023-04-06T06:52:12.887Z,101276.28
2023-04-06T06:54:40.695Z,101273.00
2023-04-06T06:57:09.301Z,101269.56
2023-04-06T06:59:37.411Z,101267.03
2023-04-06T07:02:05.329Z,101268.22
2023-04-06T07:04:33.130Z,101275.84
2023-04-06T07:07:02.529Z,101266.53
2023-04-06T07:09:30.181Z,101271.44
2023-04-06T07:11:58.296Z,101273.16
2023-04-06T07:14:26.006Z,101272.81
2023-04-06T07:16:53.892Z,101264.94
2023-04-06T07:19:21.638Z,101267.97
2023-04-06T07:21:50.218Z,101265.66
2023-04-06T07:24:19.303Z,101259.84
2023-04-06T07:26:47.370Z,101263.69
2023-04-06T07:29:14.935Z,101270.97
2023-04-06T07:31:43.735Z,101260.16
2023-04-06T07:34:11.526Z,101260.25
2023-04-06T07:36:39.114Z,101261.41
2023-04-06T07:39:06.944Z,101260.25
2023-04-06T07:41:35.977Z,101267.91
2023-04-06T07:44:03.903Z,101271.09
2023-04-06T07:46:32.211Z,101259.28
2023-04-06T07:49:01.924Z,101263.56
2023-04-06T07:51:29.656Z,101262.41
2023-04-06T07:53:57.920Z,101262.69
2023-04-06T07:56:26.213Z,101258.13
2023-04-06T07:58:57.329Z,101259.41
2023-04-06T08:01:25.051Z,101264.31
2023-04-06T08:03:52.861Z,101264.72
2023-04-06T08:06:20.754Z,101248.78
2023-04-06T08:08:48.475Z,101260.16
2023-04-06T08:11:16.609Z,101261.53
2023-04-06T08:13:44.450Z,101253.13
2023-04-06T08:16:13.491Z,101254.03
2023-04-06T08:18:41.408Z,101254.50
2023-04-06T08:21:10.116Z,101250.31
2023-04-06T08:23:37.714Z,101247.28
2023-04-06T08:26:05.798Z,101248.47
2023-04-06T08:28:35.506Z,101254.22
2023-04-06T08:31:06.037Z,101254.91
2023-04-06T08:33:36.908Z,101246.03
2023-04-06T08:36:12.653Z,101247.84
2023-04-06T08:38:41.563Z,101249.19
2023-04-06T08:41:10.899Z,101247.53
2023-04-06T08:43:45.665Z,101242.69
2023-04-06T08:46:13.603Z,101242.53
2023-04-06T08:48:43.846Z,101248.91
2023-04-06T08:51:12.170Z,101237.16
2023-04-06T08:53:40.626Z,101240.84
2023-04-06T08:56:11.329Z,101241.88
2023-04-06T08:58:41.287Z,101231.25
2023-04-06T09:01:10.803Z,101238.84
2023-04-06T09:03:41.047Z,101233.97
2023-04-06T09:06:11.252Z,101236.47
2023-04-06T09:08:43.141Z,101227.69
2023-04-06T09:11:11.850Z,101223.66
2023-04-06T09:13:50.542Z,101226.88
2023-04-06T09:16:19.009Z,101230.03
2023-04-06T09:18:47.179Z,101219.91
2023-04-06T09:21:19.261Z,101226.78
2023-04-06T09:23:50.509Z,101220.72
2023-04-06T09:26:19.424Z,101227.94
2023-04-06T09:28:48.913Z,101223.50
2023-04-06T09:31:17.729Z,101232.28
2023-04-06T09:33:47.586Z,101223.19
2023-04-06T09:36:17.440Z,101227.69
2023-04-06T09:38:56.211Z,101223.78
2023-04-06T09:41:25.539Z,101219.38
2023-04-06T09:43:53.863Z,101210.53
2023-04-06T09:46:23.806Z,101217.22
2023-04-06T09:48:52.100Z,101213.13
2023-04-06T09:51:22.314Z,101210.78
2023-04-06T09:53:55.532Z,101217.16
2023-04-06T09:56:26.779Z,101213.06
2023-04-06T09:59:03.581Z,101204.69
2023-04-06T10:01:35.829Z,101203.47
2023-04-06T10:04:22.007Z,101197.16
2023-04-06T10:06:53.477Z,101199.16
2023-04-06T10:09:27.019Z,101195.78
2023-04-06T10:11:54.778Z,101194.56
2023-04-06T10:14:22.500Z,101195.28
2023-04-06T10:16:50.663Z,101188.88
2023-04-06T10:19:24.184Z,101194.38
2023-04-06T10:21:57.812Z,101188.97
2023-04-06T10:24:25.612Z,101191.78
2023-04-06T10:27:01.228Z,101190.69
2023-04-06T10:29:29.291Z,101191.72
2023-04-06T10:31:56.999Z,101186.59
2023-04-06T10:34:32.128Z,101186.19
2023-04-06T10:37:13.027Z,101181.28
2023-04-06T10:39:49.989Z,101185.69
2023-04-06T10:42:17.616Z,101183.66
2023-04-06T10:44:46.485Z,101176.06
2023-04-06T10:47:21.349Z,101184.47
2023-04-06T10:49:49.047Z,101173.31
2023-04-06T10:52:18.357Z,101188.72
2023-04-06T10:54:50.465Z,101171.56
2023-04-06T10:57:18.226Z,101167.06
2023-04-06T10:59:46.137Z,101174.19
2023-04-06T11:02:22.692Z,101170.75
2023-04-06T11:04:58.067Z,101173.06
2023-04-06T11:07:27.880Z,101185.66
2023-04-06T11:10:12.686Z,101165.50
2023-04-06T11:12:43.543Z,101158.03
2023-04-06T11:15:12.025Z,101154.78
2023-04-06T11:17:40.934Z,101153.28
2023-04-06T11:20:12.820Z,101145.50
2023-04-06T11:22:51.695Z,101142.88
2023-04-06T11:25:19.837Z,101149.03
2023-04-06T11:27:48.977Z,101146.88
2023-04-06T11:30:16.882Z,101151.72
2023-04-06T11:32:46.148Z,101151.53
2023-04-06T11:35:23.631Z,101144.25
2023-04-06T11:37:53.253Z,101148.88
2023-04-06T11:40:23.500Z,101148.69
2023-04-06T11:42:54.862Z,101141.22
2023-04-06T11:45:23.028Z,101143.38
2023-04-06T11:47:58.473Z,101126.59
2023-04-06T11:50:26.285Z,101131.44
2023-04-06T11:53:02.463Z,101136.41
2023-04-06T11:55:32.295Z,101142.59
2023-04-06T11:58:01.230Z,101128.94
2023-04-06T12:00:32.882Z,101133.16
2023-04-06T12:03:00.593Z,101107.22
2023-04-06T12:05:28.580Z,101128.53
2023-04-06T12:07:57.475Z,101115.88
2023-04-06T12:10:27.974Z,101114.75
2023-04-06T12:12:55.669Z,101112.69
2023-04-06T12:15:23.430Z,101110.41
2023-04-06T12:17:51.574Z,101114.44
2023-04-06T12:20:26.473Z,101116.38
2023-04-06T12:22:54.587Z,101100.13
2023-04-06T12:25:23.750Z,101109.53
2023-04-06T12:27:52.971Z,101117.28
2023-04-06T12:30:20.824Z,101107.72
2023-04-06T12:32:51.107Z,101113.56
2023-04-06T12:35:21.626Z,101097.25
2023-04-06T12:37:49.335Z,101095.19
2023-04-06T12:40:17.233Z,101105.28
2023-04-06T12:42:46.596Z,101095.22
2023-04-06T12:45:18.130Z,101102.34
2023-04-06T12:47:45.760Z,101101.09
2023-04-06T12:50:13.648Z,101097.34
2023-04-06T12:52:41.267Z,101090.88
2023-04-06T12:55:10.169Z,101091.28
2023-04-06T12:57:38.049Z,101085.44
2023-04-06T13:00:09.169Z,101094.84
2023-04-06T13:02:38.657Z,101083.94
2023-04-06T13:05:09.020Z,101073.03
2023-04-06T13:07:36.676Z,101067.78
2023-04-06T13:10:04.914Z,101066.94
2023-04-06T13:12:32.573Z,101066.50
2023-04-06T13:15:01.045Z,101063.91
2023-04-06T13:17:29.376Z,101062.03
2023-04-06T13:19:58.599Z,101068.28
2023-04-06T13:22:26.614Z,101047.09
2023-04-06T13:24:54.261Z,101049.75
2023-04-06T13:27:21.949Z,101043.09
2023-04-06T13:29:49.589Z,101046.16
2023-04-06T13:32:17.303Z,101037.09
2023-04-06T13:34:45.870Z,101040.13
2023-04-06T13:37:15.738Z,101038.81
2023-04-06T13:39:43.768Z,101032.44
2023-04-06T13:42:11.979Z,101037.84
2023-04-06T13:44:39.782Z,101033.34
2023-04-06T13:47:08.140Z,101033.94
2023-04-06T13:49:36.883Z,101033.47
2023-04-06T13:52:04.806Z,101027.56
2023-04-06T13:54:33.865Z,101037.94
2023-04-06T13:57:01.765Z,101030.00
2023-04-06T13:59:34.540Z,101025.34
2023-04-06T14:02:02.383Z,101026.50
2023-04-06T14:04:31.020Z,101018.50
2023-04-06T14:06:59.039Z,101010.19
2023-04-06T14:09:26.833Z,101023.31
2023-04-06T14:11:56.254Z,101017.25
2023-04-06T14:14:24.370Z,101010.88
2023-04-06T14:16:52.044Z,101009.44
2023-04-06T14:19:20.528Z,101013.75
2023-04-06T14:21:48.276Z,101015.47
2023-04-06T14:24:18.848Z,101009.31
2023-04-06T14:26:46.589Z,100995.66
2023-04-06T14:29:16.683Z,101002.84
2023-04-06T14:31:44.360Z,101003.16
2023-04-06T14:34:12.116Z,101003.53
2023-04-06T14:36:40.059Z,101002.94
2023-04-06T14:39:08.966Z,100996.09
2023-04-06T14:41:36.774Z,100996.72
2023-04-06T14:44:06.589Z,100997.25
2023-04-06T14:46:35.773Z,100997.25
2023-04-06T14:49:04.288Z,100992.22
2023-04-06T14:51:32.238Z,100998.53
2023-04-06T14:54:01.907Z,100991.41
2023-04-06T14:56:30.062Z,100988.69
2023-04-06T14:59:00.512Z,100988.72
2023-04-06T15:01:29.287Z,100989.56
2023-04-06T15:03:58.306Z,100989.34
2023-04-06T15:06:26.584Z,100991.25
2023-04-06T15:08:55.534Z,100987.91
2023-04-06T15:11:23.612Z,100978.50
2023-04-06T15:13:51.584Z,100982.03
2023-04-06T15:16:19.225Z,100984.38
2023-04-06T15:18:46.894Z,100988.53
2023-04-06T15:21:16.141Z,100989.78
2023-04-06T15:23:43.803Z,100992.50
2023-04-06T15:26:11.900Z,100976.19
2023-04-06T15:28:39.550Z,100981.63
2023-04-06T15:31:20.640Z,100973.25
2023-04-06T15:33:56.479Z,100972.41
2023-04-06T15:36:29.439Z,100971.16
2023-04-06T15:38:57.842Z,100975.53
2023-04-06T15:41:26.756Z,100983.91
2023-04-06T15:43:55.294Z,100973.03
2023-04-06T15:46:23.246Z,100972.41
2023-04-06T15:48:50.953Z,100964.66
2023-04-06T15:51:18.679Z,100964.44
2023-04-06T15:53:47.677Z,100969.66
2023-04-06T15:56:15.856Z,100961.31
2023-04-06T15:58:43.543Z,100971.34
2023-04-06T16:01:15.495Z,100961.09
2023-04-06T16:03:43.552Z,100957.97
2023-04-06T16:06:12.253Z,100962.16
2023-04-06T16:08:40.872Z,100964.22
2023-04-06T16:11:10.420Z,100966.75
2023-04-06T16:13:38.377Z,100963.41
2023-04-06T16:16:07.120Z,100962.56
2023-04-06T16:18:36.454Z,100967.56
2023-04-06T16:21:05.401Z,100963.81
2023-04-06T16:23:33.189Z,100964.66
2023-04-06T16:26:02.300Z,100960.25
2023-04-06T16:28:31.458Z,100962.34
2023-04-06T16:30:59.149Z,100958.56
2023-04-06T16:33:26.770Z,100956.50
2023-04-06T16:35:55.355Z,100953.78
2023-04-06T16:38:23.999Z,100969.00
2023-04-06T16:41:00.747Z,100960.47
2023-04-06T16:43:28.514Z,100966.50
2023-04-06T16:45:57.662Z,100955.22
2023-04-06T16:48:25.742Z,100959.19
2023-04-06T16:50:53.376Z,100966.50
2023-04-06T16:53:21.075Z,100960.84
2023-04-06T16:55:48.756Z,100950.19
2023-04-06T16:58:16.459Z,100950.63
2023-04-06T17:00:45.185Z,100949.13
2023-04-06T17:03:14.476Z,100951.63
2023-04-06T17:05:42.295Z,100957.44
2023-04-06T17:08:10.028Z,100951.63
2023-04-06T17:10:46.913Z,100957.06
2023-04-06T17:13:25.416Z,100962.03
2023-04-06T17:15:54.309Z,100956.38
2023-04-06T17:18:23.292Z,100953.22
2023-04-06T17:20:51.037Z,100953.22
2023-04-06T17:23:21.008Z,100957.41
2023-04-06T17:25:48.646Z,100956.13
2023-04-06T17:28:16.350Z,100958.63
2023-04-06T17:30:44.212Z,100956.34
2023-04-06T17:33:12.475Z,100958.22
2023-04-06T17:35:42.371Z,100962.38
2023-04-06T17:38:10.246Z,100967.38
2023-04-06T17:40:38.510Z,100966.16
2023-04-06T17:43:06.843Z,100967.78
2023-04-06T17:45:34.579Z,100971.09
2023-04-06T17:48:02.327Z,100968.41
2023-04-06T17:50:30.539Z,100980.50
2023-04-06T17:52:59.509Z,100978.97
2023-04-06T17:55:27.573Z,100973.75
2023-04-06T17:57:55.490Z,100978.94
2023-04-06T18:00:24.572Z,100977.72
2023-04-06T18:02:53.031Z,100981.66
2023-04-06T18:05:21.728Z,100987.50
2023-04-06T18:07:49.437Z,100983.72
2023-04-06T18:10:18.831Z,100989.34
2023-04-06T18:12:46.552Z,100995.19
2023-04-06T18:15:15.299Z,100997.63
2023-04-06T18:17:43.255Z,100992.69
2023-04-06T18:20:13.305Z,100984.78
2023-04-06T18:22:42.687Z,100989.34
2023-04-06T18:25:10.727Z,100993.50
2023-04-06T18:27:39.758Z,100997.06
2023-04-06T18:30:08.482Z,100995.41
2023-04-06T18:32:36.330Z,100997.63
2023-04-06T18:35:05.496Z,100996.16
2023-04-06T18:37:33.232Z,100996.13
2023-04-06T18:40:01.076Z,101000.50
2023-04-06T18:42:28.827Z,101008.16
2023-04-06T18:44:58.934Z,101006.25
2023-04-06T18:47:26.852Z,101006.22
2023-04-06T18:49:54.750Z,101014.31
2023-04-06T18:52:22.693Z,101010.13
2023-04-06T18:54:51.038Z,101014.00
2023-04-06T18:57:18.667Z,101011.69
2023-04-06T18:59:46.425Z,101014.91
2023-04-06T19:02:15.466Z,101020.94
2023-04-06T19:04:43.289Z,101026.31
2023-04-06T19:07:11.113Z,101026.25
2023-04-06T19:09:38.747Z,101027.75
2023-04-06T19:12:07.393Z,101029.38
2023-04-06T19:14:35.077Z,101029.19
2023-04-06T19:17:02.823Z,101030.59
2023-04-06T19:19:31.783Z,101032.97
2023-04-06T19:22:01.951Z,101024.66
2023-04-06T19:24:29.889Z,101030.25
2023-04-06T19:27:03.363Z,101037.22
2023-04-06T19:29:31.658Z,101033.97
2023-04-06T19:31:59.723Z,101041.25
2023-04-06T19:34:28.614Z,101043.97
2023-04-06T19:36:57.693Z,101039.97
2023-04-06T19:39:26.435Z,101037.72
2023-04-06T19:41:54.029Z,101038.00
2023-04-06T19:44:21.743Z,101043.69
2023-04-06T19:46:50.495Z,101041.84
2023-04-06T19:49:18.315Z,101048.81
2023-04-06T19:51:46.122Z,101043.53
2023-04-06T19:54:15.262Z,101041.06
2023-04-06T19:56:42.916Z,101037.78
2023-04-06T19:59:11.259Z,101039.94
2023-04-06T20:01:39.049Z,101040.50
2023-04-06T20:04:07.818Z,101047.88
2023-04-06T20:06:35.630Z,101044.41
2023-04-06T20:09:03.327Z,101047.13
2023-04-06T20:11:34.282Z,101046.09
2023-04-06T20:14:02.376Z,101046.28
2023-04-06T20:16:30.259Z,101049.72
2023-04-06T20:18:57.952Z,101042.63
2023-04-06T20:21:25.807Z,101045.53
2023-04-06T20:23:53.717Z,101044.31
2023-04-06T20:26:21.409Z,101048.03
2023-04-06T20:28:50.420Z,101045.03
2023-04-06T20:31:18.081Z,101041.28
2023-04-06T20:33:45.752Z,101051.91
2023-04-06T20:36:13.387Z,101045.13
2023-04-06T20:38:41.443Z,101043.81
2023-04-06T20:41:10.223Z,101041.81
2023-04-06T20:43:38.391Z,101046.56
2023-04-06T20:46:09.215Z,101041.00
2023-04-06T20:48:38.004Z,101046.84
2023-04-06T20:51:06.469Z,101054.66
2023-04-06T20:53:34.450Z,101046.41
2023-04-06T20:56:09.349Z,101047.78
2023-04-06T20:58:41.392Z,101051.09
2023-04-06T21:01:14.978Z,101047.53
2023-04-06T21:03:43.413Z,101044.69
2023-04-06T21:06:11.521Z,101048.88
2023-04-06T21:08:39.763Z,101050.00
2023-04-06T21:11:07.674Z,101047.00
2023-04-06T21:13:36.305Z,101040.63
2023-04-06T21:16:04.630Z,101039.81
2023-04-06T21:18:33.703Z,101033.28
2023-04-06T21:21:01.741Z,101042.09
2023-04-06T21:23:29.559Z,101033.88
2023-04-06T21:25:57.798Z,101035.75
2023-04-06T21:28:27.116Z,101031.03
2023-04-06T21:30:55.373Z,101028.94
2023-04-06T21:33:23.596Z,101027.63
2023-04-06T21:35:53.516Z,101023.88
2023-04-06T21:38:21.518Z,101031.44
2023-04-06T21:40:55.345Z,101029.53
2023-04-06T21:43:22.985Z,101027.53
2023-04-06T21:45:51.180Z,101035.19
2023-04-06T21:48:19.352Z,101029.44
2023-04-06T21:50:47.125Z,101034.81
2023-04-06T21:53:16.178Z,101030.00
2023-04-06T21:55:44.805Z,101035.22
2023-04-06T21:58:13.298Z,101036.09
2023-04-06T22:00:41.685Z,101034.25
2023-04-06T22:03:09.689Z,101026.69
2023-04-06T22:05:51.346Z,101027.88
2023-04-06T22:08:33.355Z,101025.91
2023-04-06T22:11:04.433Z,101018.94
2023-04-06T22:13:32.314Z,101033.97
2023-04-06T22:16:00.034Z,101035.66
2023-04-06T22:18:27.898Z,101029.31
2023-04-06T22:20:56.024Z,101030.00
2023-04-06T22:23:25.469Z,101033.00
2023-04-06T22:25:57.925Z,101032.25
2023-04-06T22:28:25.792Z,101037.50
2023-04-06T22:30:53.404Z,101039.50
2023-04-06T22:33:21.499Z,101033.94
2023-04-06T22:35:49.196Z,101034.13
2023-04-06T22:38:17.003Z,101033.47
2023-04-06T22:40:45.942Z,101032.44
2023-04-06T22:43:13.646Z,101038.50
2023-04-06T22:45:41.310Z,101038.19
2023-04-06T22:48:11.228Z,101041.22
2023-04-06T22:50:39.360Z,101040.91
2023-04-06T22:53:07.314Z,101044.81
2023-04-06T22:55:35.324Z,101044.63
2023-04-06T22:58:04.344Z,101042.66
2023-04-06T23:00:32.125Z,101044.63
2023-04-06T23:03:00.260Z,101047.69
2023-04-06T23:05:30.270Z,101050.75
2023-04-06T23:07:58.065Z,101042.97
2023-04-06T23:10:25.664Z,101046.03
2023-04-06T23:12:53.822Z,101042.50
2023-04-06T23:15:23.000Z,101043.50
2023-04-06T23:17:54.068Z,101047.22
2023-04-06T23:20:22.311Z,101045.19
2023-04-06T23:22:52.305Z,101046.22
2023-04-06T23:25:20.178Z,101041.00
2023-04-06T23:27:48.023Z,101045.22
2023-04-06T23:30:16.281Z,101045.06
2023-04-06T23:32:45.961Z,101044.38
2023-04-06T23:35:13.820Z,101047.44
2023-04-06T23:37:41.621Z,101047.63
2023-04-06T23:40:10.393Z,101049.47
2023-04-06T23:42:38.109Z,101059.91
2023-04-06T23:45:06.826Z,101053.00
2023-04-06T23:47:34.587Z,101050.13
2023-04-06T23:50:06.321Z,101051.84
2023-04-06T23:52:34.304Z,101049.63
2023-04-06T23:55:01.925Z,101054.00
2023-04-06T23:57:29.650Z,101051.66
2023-04-06T23:59:59.941Z,101050.81
